PDT,Max TemperatureF,Mean TemperatureF,Min TemperatureF,Max Dew PointF,MeanDew PointF,Min DewpointF,Max Humidity, Mean Humidity, Min Humidity, Max Sea Level PressureIn, Mean Sea Level PressureIn, Min Sea Level PressureIn, Max VisibilityMiles, Mean VisibilityMiles, Min VisibilityMiles, Max Wind SpeedMPH, Mean Wind SpeedMPH, Max Gust SpeedMPH,PrecipitationIn, CloudCover, Events, WindDirDegrees
2012-10-1,80,56,32,31,26,20,61,38,14,30.32,30.21,30.07,10,10,9,12,4,13,0.00,0,,237
2012-10-2,80,56,32,36,18,-1,61,33,5,30.13,30.04,29.96,10,10,10,21,7,26,0.00,0,,263
2012-10-3,64,45,25,19,7,-7,47,27,6,30.27,30.21,30.07,10,9,3,13,6,15,0.00,0,,292
2012-10-4,66,44,21,13,9,6,50,30,10,30.24,30.19,30.10,10,10,7,18,7,23,0.00,0,,273
2012-10-5,63,40,16,15,9,5,61,37,13,30.31,30.25,30.19,10,10,7,10,4,16,0.00,0,,288
2012-10-6,63,41,19,13,7,2,56,33,10,30.31,30.25,30.18,10,10,8,16,7,22,0.00,0,,348
2012-10-7,66,42,17,12,7,1,54,32,10,30.26,30.15,30.06,10,10,10,15,5,18,0.00,0,,21
2012-10-8,71,43,15,13,9,4,54,31,8,30.12,30.02,29.94,10,9,4,12,4,13,0.00,0,,267
2012-10-9,72,47,22,24,16,7,52,34,15,30.13,30.04,29.98,10,9,4,10,3,12,0.00,0,,267
2012-10-10,73,50,27,25,22,16,69,42,14,30.10,29.98,29.88,10,10,10,10,4,13,0.00,0,,217
2012-10-11,76,51,25,28,21,16,69,41,13,30.01,29.92,29.85,10,10,9,9,2,15,0.00,0,,303
2012-10-12,78,52,25,34,20,8,63,35,7,30.02,29.91,29.83,10,10,10,21,8,29,0.01,2,,273
2012-10-13,66,50,33,45,39,32,89,65,40,30.31,30.23,30.04,10,10,5,14,4,18,T,6,Rain,243
2012-10-14,75,51,26,39,32,25,92,58,23,30.31,30.20,30.01,10,9,1,17,5,21,0.00,1,,245
2012-10-15,71,58,45,54,47,36,93,67,40,30.11,30.00,29.86,10,10,4,25,7,31,0.19,7,Rain,212
2012-10-16,58,43,27,54,41,24,93,62,30,30.25,29.95,29.76,10,9,2,29,13,37,0.21,3,Rain-Snow,247
2012-10-17,56,38,20,29,26,19,92,64,35,30.35,30.29,30.26,10,7,1,9,3,10,0.00,0,Snow,261
2012-10-18,67,45,22,31,27,20,92,56,20,30.37,30.23,30.07,10,9,3,13,4,15,0.00,0,,5
2012-10-19,71,52,33,47,36,29,85,58,30,30.08,29.95,29.81,10,10,7,28,9,36,T,5,,224
2012-10-20,55,40,25,43,31,22,86,59,32,29.90,29.84,29.81,10,9,6,28,10,35,0.00,2,,247
2012-10-21,50,32,14,25,19,13,92,60,28,29.98,29.89,29.78,10,10,7,12,4,15,0.00,0,,260
2012-10-22,46,35,24,37,28,19,96,72,48,29.76,29.65,29.56,10,8,2,30,6,45,0.05,6,Rain-Snow,222
2012-10-23,44,33,22,30,27,20,92,68,43,30.00,29.86,29.71,10,8,0,18,6,24,0.09,6,Fog-Snow,197
2012-10-24,37,30,23,34,29,21,100,91,82,30.19,30.00,29.91,10,3,0,9,3,10,0.22,7,Fog-Snow,38
2012-10-25,46,34,21,31,25,20,100,71,41,30.49,30.29,30.14,10,5,0,10,3,14,0.00,6,Fog,226
2012-10-26,49,35,21,32,26,19,92,69,46,30.47,30.29,30.15,10,10,10,7,2,10,0.00,4,,308
2012-10-27,47,35,23,36,30,22,92,73,53,30.24,30.18,30.13,10,10,9,7,1,9,T,5,Rain,3
2012-10-28,66,50,33,46,40,32,96,72,48,30.15,30.07,29.99,10,10,10,13,3,18,T,4,Rain,166
2012-10-29,64,48,32,43,38,30,100,70,40,30.17,30.09,29.99,10,7,0,23,7,29,0.00,1,Fog,263
2012-10-30,66,53,39,41,37,32,89,62,34,30.11,30.03,29.96,10,10,9,8,4,10,T,2,Rain,214
2012-10-31,63,49,35,38,32,26,89,57,25,29.97,29.89,29.81,10,9,5,23,6,31,T,3,Rain,176